sensor_id;sensor_type;location;lat;lon;timestamp;P1;durP1;ratioP1;P2;durP2;ratioP2
43449;SDS011;29041;42.266;23.110;2022-08-02T00:02:08;2.15;;;1.95;;
43449;SDS011;29041;42.266;23.110;2022-08-02T00:04:55;3.72;;;2.67;;
43449;SDS011;29041;42.266;23.110;2022-08-02T00:07:42;3.13;;;2.03;;
43449;SDS011;29041;42.266;23.110;2022-08-02T00:10:30;3.78;;;2.40;;
43449;SDS011;29041;42.266;23.110;2022-08-02T00:13:17;4.20;;;2.58;;
43449;SDS011;29041;42.266;23.110;2022-08-02T00:16:06;5.28;;;2.00;;
43449;SDS011;29041;42.266;23.110;2022-08-02T00:18:53;2.22;;;1.95;;
43449;SDS011;29041;42.266;23.110;2022-08-02T00:21:40;6.38;;;2.42;;
43449;SDS011;29041;42.266;23.110;2022-08-02T00:24:27;3.50;;;2.40;;
43449;SDS011;29041;42.266;23.110;2022-08-02T00:27:15;2.20;;;1.95;;
43449;SDS011;29041;42.266;23.110;2022-08-02T00:30:02;4.45;;;2.80;;
43449;SDS011;29041;42.266;23.110;2022-08-02T00:32:51;3.00;;;2.33;;
43449;SDS011;29041;42.266;23.110;2022-08-02T00:35:38;3.53;;;2.33;;
43449;SDS011;29041;42.266;23.110;2022-08-02T00:38:25;4.20;;;2.47;;
43449;SDS011;29041;42.266;23.110;2022-08-02T00:41:14;4.97;;;2.92;;
43449;SDS011;29041;42.266;23.110;2022-08-02T00:44:03;4.05;;;2.20;;
43449;SDS011;29041;42.266;23.110;2022-08-02T00:46:50;2.88;;;2.30;;
43449;SDS011;29041;42.266;23.110;2022-08-02T00:49:39;2.53;;;2.28;;
43449;SDS011;29041;42.266;23.110;2022-08-02T00:52:26;2.58;;;2.38;;
43449;SDS011;29041;42.266;23.110;2022-08-02T00:55:13;3.00;;;2.53;;
43449;SDS011;29041;42.266;23.110;2022-08-02T00:58:00;3.45;;;2.60;;
43449;SDS011;29041;42.266;23.110;2022-08-02T01:00:47;3.22;;;2.53;;
43449;SDS011;29041;42.266;23.110;2022-08-02T01:03:34;3.55;;;2.90;;
43449;SDS011;29041;42.266;23.110;2022-08-02T01:06:23;3.85;;;2.65;;
43449;SDS011;29041;42.266;23.110;2022-08-02T01:09:17;3.13;;;2.88;;
43449;SDS011;29041;42.266;23.110;2022-08-02T01:12:05;3.80;;;2.80;;
43449;SDS011;29041;42.266;23.110;2022-08-02T01:14:53;2.95;;;2.50;;
43449;SDS011;29041;42.266;23.110;2022-08-02T01:17:43;2.85;;;2.30;;
43449;SDS011;29041;42.266;23.110;2022-08-02T01:20:43;2.83;;;2.50;;
43449;SDS011;29041;42.266;23.110;2022-08-02T01:27:10;4.15;;;2.80;;
43449;SDS011;29041;42.266;23.110;2022-08-02T01:30:11;7.43;;;3.22;;
43449;SDS011;29041;42.266;23.110;2022-08-02T01:33:00;3.53;;;2.83;;
43449;SDS011;29041;42.266;23.110;2022-08-02T01:35:51;4.45;;;2.63;;
43449;SDS011;29041;42.266;23.110;2022-08-02T01:38:43;3.72;;;2.50;;
43449;SDS011;29041;42.266;23.110;2022-08-02T01:41:33;4.68;;;2.80;;
43449;SDS011;29041;42.266;23.110;2022-08-02T01:44:21;3.60;;;2.65;;
43449;SDS011;29041;42.266;23.110;2022-08-02T01:47:13;3.45;;;3.15;;
43449;SDS011;29041;42.266;23.110;2022-08-02T01:50:03;3.03;;;2.78;;
43449;SDS011;29041;42.266;23.110;2022-08-02T01:56:06;4.57;;;3.30;;
43449;SDS011;29041;42.266;23.110;2022-08-02T01:58:55;4.60;;;2.70;;
43449;SDS011;29041;42.266;23.110;2022-08-02T02:01:42;3.28;;;2.97;;
43449;SDS011;29041;42.266;23.110;2022-08-02T02:04:35;4.55;;;2.80;;
43449;SDS011;29041;42.266;23.110;2022-08-02T02:07:23;3.60;;;2.97;;
43449;SDS011;29041;42.266;23.110;2022-08-02T02:10:13;3.20;;;2.88;;
43449;SDS011;29041;42.266;23.110;2022-08-02T02:13:03;2.72;;;2.53;;
43449;SDS011;29041;42.266;23.110;2022-08-02T02:15:52;3.40;;;3.10;;
43449;SDS011;29041;42.266;23.110;2022-08-02T02:18:41;4.05;;;3.03;;
43449;SDS011;29041;42.266;23.110;2022-08-02T02:21:32;3.83;;;3.28;;
43449;SDS011;29041;42.266;23.110;2022-08-02T02:24:19;3.20;;;2.47;;
43449;SDS011;29041;42.266;23.110;2022-08-02T02:27:06;4.15;;;3.05;;
43449;SDS011;29041;42.266;23.110;2022-08-02T02:29:55;4.18;;;3.17;;
43449;SDS011;29041;42.266;23.110;2022-08-02T02:32:42;6.25;;;3.03;;
43449;SDS011;29041;42.266;23.110;2022-08-02T02:35:31;5.18;;;2.88;;
43449;SDS011;29041;42.266;23.110;2022-08-02T02:38:23;4.50;;;3.00;;
43449;SDS011;29041;42.266;23.110;2022-08-02T02:41:14;2.80;;;2.60;;
43449;SDS011;29041;42.266;23.110;2022-08-02T02:44:03;6.40;;;3.20;;
43449;SDS011;29041;42.266;23.110;2022-08-02T02:46:55;3.58;;;3.13;;
43449;SDS011;29041;42.266;23.110;2022-08-02T02:49:44;3.85;;;3.08;;
43449;SDS011;29041;42.266;23.110;2022-08-02T02:52:43;4.63;;;3.08;;
43449;SDS011;29041;42.266;23.110;2022-08-02T02:55:33;9.48;;;4.18;;
43449;SDS011;29041;42.266;23.110;2022-08-02T02:58:21;3.17;;;2.85;;
43449;SDS011;29041;42.266;23.110;2022-08-02T03:01:09;4.57;;;3.45;;
43449;SDS011;29041;42.266;23.110;2022-08-02T03:04:15;3.53;;;2.95;;
43449;SDS011;29041;42.266;23.110;2022-08-02T03:07:03;3.97;;;3.00;;
43449;SDS011;29041;42.266;23.110;2022-08-02T03:09:50;4.55;;;3.10;;
43449;SDS011;29041;42.266;23.110;2022-08-02T03:12:39;4.95;;;3.22;;
43449;SDS011;29041;42.266;23.110;2022-08-02T03:15:26;4.18;;;3.08;;
43449;SDS011;29041;42.266;23.110;2022-08-02T03:18:28;4.97;;;3.83;;
43449;SDS011;29041;42.266;23.110;2022-08-02T03:21:15;3.22;;;2.80;;
43449;SDS011;29041;42.266;23.110;2022-08-02T03:24:03;4.22;;;3.30;;
43449;SDS011;29041;42.266;23.110;2022-08-02T03:26:50;6.30;;;3.22;;
43449;SDS011;29041;42.266;23.110;2022-08-02T03:29:39;8.82;;;4.07;;
43449;SDS011;29041;42.266;23.110;2022-08-02T03:32:26;4.05;;;3.65;;
43449;SDS011;29041;42.266;23.110;2022-08-02T03:35:14;3.40;;;3.03;;
43449;SDS011;29041;42.266;23.110;2022-08-02T03:38:03;5.55;;;3.47;;
43449;SDS011;29041;42.266;23.110;2022-08-02T03:40:51;6.20;;;3.63;;
43449;SDS011;29041;42.266;23.110;2022-08-02T03:43:40;4.13;;;3.17;;
43449;SDS011;29041;42.266;23.110;2022-08-02T03:46:31;6.03;;;3.47;;
43449;SDS011;29041;42.266;23.110;2022-08-02T03:49:19;5.78;;;3.42;;
43449;SDS011;29041;42.266;23.110;2022-08-02T03:52:07;4.90;;;3.20;;
43449;SDS011;29041;42.266;23.110;2022-08-02T03:54:54;5.28;;;3.00;;
43449;SDS011;29041;42.266;23.110;2022-08-02T03:57:41;7.63;;;3.17;;
43449;SDS011;29041;42.266;23.110;2022-08-02T04:00:29;3.55;;;2.90;;
43449;SDS011;29041;42.266;23.110;2022-08-02T04:03:17;5.20;;;3.70;;
43449;SDS011;29041;42.266;23.110;2022-08-02T04:06:05;6.80;;;4.00;;
43449;SDS011;29041;42.266;23.110;2022-08-02T04:08:52;6.03;;;3.90;;
43449;SDS011;29041;42.266;23.110;2022-08-02T04:11:44;4.25;;;3.00;;
43449;SDS011;29041;42.266;23.110;2022-08-02T04:14:31;6.28;;;3.63;;
43449;SDS011;29041;42.266;23.110;2022-08-02T04:17:18;5.35;;;3.25;;
43449;SDS011;29041;42.266;23.110;2022-08-02T04:20:12;4.90;;;3.30;;
43449;SDS011;29041;42.266;23.110;2022-08-02T04:23:04;5.18;;;3.20;;
43449;SDS011;29041;42.266;23.110;2022-08-02T04:25:54;4.50;;;3.30;;
43449;SDS011;29041;42.266;23.110;2022-08-02T04:28:43;5.28;;;4.22;;
43449;SDS011;29041;42.266;23.110;2022-08-02T04:31:30;10.18;;;3.13;;
43449;SDS011;29041;42.266;23.110;2022-08-02T04:34:18;8.02;;;3.40;;
43449;SDS011;29041;42.266;23.110;2022-08-02T04:37:06;4.65;;;2.25;;
43449;SDS011;29041;42.266;23.110;2022-08-02T04:39:54;4.38;;;3.45;;
43449;SDS011;29041;42.266;23.110;2022-08-02T04:42:41;7.05;;;3.30;;
43449;SDS011;29041;42.266;23.110;2022-08-02T04:45:28;5.60;;;3.10;;
43449;SDS011;29041;42.266;23.110;2022-08-02T04:48:16;4.90;;;2.65;;
43449;SDS011;29041;42.266;23.110;2022-08-02T04:51:03;3.78;;;2.70;;
43449;SDS011;29041;42.266;23.110;2022-08-02T04:53:52;5.47;;;2.80;;
43449;SDS011;29041;42.266;23.110;2022-08-02T04:56:39;4.28;;;3.30;;
43449;SDS011;29041;42.266;23.110;2022-08-02T04:59:26;6.30;;;3.97;;
43449;SDS011;29041;42.266;23.110;2022-08-02T05:02:13;4.68;;;3.10;;
43449;SDS011;29041;42.266;23.110;2022-08-02T05:05:01;3.92;;;3.20;;
43449;SDS011;29041;42.266;23.110;2022-08-02T05:07:48;8.20;;;3.42;;
43449;SDS011;29041;42.266;23.110;2022-08-02T05:10:37;6.10;;;3.08;;
43449;SDS011;29041;42.266;23.110;2022-08-02T05:13:24;5.20;;;3.20;;
43449;SDS011;29041;42.266;23.110;2022-08-02T05:16:11;6.13;;;3.70;;
43449;SDS011;29041;42.266;23.110;2022-08-02T05:18:58;5.50;;;3.20;;
43449;SDS011;29041;42.266;23.110;2022-08-02T05:21:45;9.02;;;3.47;;
43449;SDS011;29041;42.266;23.110;2022-08-02T05:24:32;5.07;;;3.20;;
43449;SDS011;29041;42.266;23.110;2022-08-02T05:27:21;8.05;;;3.88;;
43449;SDS011;29041;42.266;23.110;2022-08-02T05:30:09;5.07;;;2.55;;
43449;SDS011;29041;42.266;23.110;2022-08-02T05:32:57;4.40;;;3.45;;
43449;SDS011;29041;42.266;23.110;2022-08-02T05:35:44;5.10;;;2.92;;
43449;SDS011;29041;42.266;23.110;2022-08-02T05:38:31;5.32;;;2.75;;
43449;SDS011;29041;42.266;23.110;2022-08-02T05:41:18;5.43;;;2.92;;
43449;SDS011;29041;42.266;23.110;2022-08-02T05:44:07;4.45;;;2.60;;
43449;SDS011;29041;42.266;23.110;2022-08-02T05:46:54;4.50;;;3.35;;
43449;SDS011;29041;42.266;23.110;2022-08-02T05:49:41;5.53;;;2.92;;
43449;SDS011;29041;42.266;23.110;2022-08-02T05:52:31;5.78;;;3.00;;
43449;SDS011;29041;42.266;23.110;2022-08-02T05:55:28;5.00;;;3.10;;
43449;SDS011;29041;42.266;23.110;2022-08-02T05:58:23;7.13;;;3.25;;
43449;SDS011;29041;42.266;23.110;2022-08-02T06:01:19;5.05;;;2.95;;
43449;SDS011;29041;42.266;23.110;2022-08-02T06:04:15;7.57;;;2.65;;
43449;SDS011;29041;42.266;23.110;2022-08-02T06:07:10;4.15;;;2.63;;
43449;SDS011;29041;42.266;23.110;2022-08-02T06:09:59;4.60;;;2.75;;
43449;SDS011;29041;42.266;23.110;2022-08-02T06:12:49;5.97;;;2.28;;
43449;SDS011;29041;42.266;23.110;2022-08-02T06:15:42;3.08;;;2.47;;
43449;SDS011;29041;42.266;23.110;2022-08-02T06:18:31;4.65;;;2.78;;
43449;SDS011;29041;42.266;23.110;2022-08-02T06:21:19;3.58;;;2.95;;
43449;SDS011;29041;42.266;23.110;2022-08-02T06:24:08;4.90;;;2.50;;
43449;SDS011;29041;42.266;23.110;2022-08-02T06:26:56;5.57;;;3.05;;
43449;SDS011;29041;42.266;23.110;2022-08-02T06:29:45;5.47;;;2.90;;
43449;SDS011;29041;42.266;23.110;2022-08-02T06:32:34;5.03;;;2.80;;
43449;SDS011;29041;42.266;23.110;2022-08-02T06:35:24;2.83;;;2.63;;
43449;SDS011;29041;42.266;23.110;2022-08-02T06:38:21;3.40;;;2.58;;
43449;SDS011;29041;42.266;23.110;2022-08-02T06:41:11;5.32;;;2.40;;
43449;SDS011;29041;42.266;23.110;2022-08-02T06:44:00;4.03;;;2.75;;
43449;SDS011;29041;42.266;23.110;2022-08-02T06:46:49;6.00;;;2.72;;
43449;SDS011;29041;42.266;23.110;2022-08-02T06:49:36;3.05;;;2.42;;
43449;SDS011;29041;42.266;23.110;2022-08-02T06:52:26;2.92;;;2.15;;
43449;SDS011;29041;42.266;23.110;2022-08-02T06:55:15;3.55;;;2.13;;
43449;SDS011;29041;42.266;23.110;2022-08-02T06:58:02;4.43;;;2.17;;
43449;SDS011;29041;42.266;23.110;2022-08-02T07:00:49;5.55;;;3.08;;
43449;SDS011;29041;42.266;23.110;2022-08-02T07:03:37;3.33;;;2.47;;
43449;SDS011;29041;42.266;23.110;2022-08-02T07:06:25;3.58;;;2.58;;
43449;SDS011;29041;42.266;23.110;2022-08-02T07:09:14;3.53;;;2.05;;
43449;SDS011;29041;42.266;23.110;2022-08-02T07:12:01;3.92;;;1.85;;
43449;SDS011;29041;42.266;23.110;2022-08-02T07:14:49;3.50;;;1.70;;
43449;SDS011;29041;42.266;23.110;2022-08-02T07:17:38;2.22;;;1.55;;
43449;SDS011;29041;42.266;23.110;2022-08-02T07:20:26;2.85;;;2.05;;
43449;SDS011;29041;42.266;23.110;2022-08-02T07:23:13;1.50;;;1.40;;
43449;SDS011;29041;42.266;23.110;2022-08-02T07:26:01;2.67;;;1.70;;
43449;SDS011;29041;42.266;23.110;2022-08-02T07:28:48;2.83;;;1.35;;
43449;SDS011;29041;42.266;23.110;2022-08-02T07:31:36;2.42;;;1.10;;
43449;SDS011;29041;42.266;23.110;2022-08-02T07:34:23;2.42;;;1.50;;
43449;SDS011;29041;42.266;23.110;2022-08-02T07:37:10;2.78;;;1.40;;
43449;SDS011;29041;42.266;23.110;2022-08-02T07:39:57;2.58;;;1.20;;
43449;SDS011;29041;42.266;23.110;2022-08-02T07:42:46;2.35;;;1.23;;
43449;SDS011;29041;42.266;23.110;2022-08-02T07:45:34;4.82;;;1.90;;
43449;SDS011;29041;42.266;23.110;2022-08-02T07:48:21;2.47;;;1.77;;
43449;SDS011;29041;42.266;23.110;2022-08-02T07:51:08;2.53;;;1.00;;
43449;SDS011;29041;42.266;23.110;2022-08-02T07:53:55;1.85;;;0.80;;
43449;SDS011;29041;42.266;23.110;2022-08-02T07:56:42;1.88;;;1.00;;
43449;SDS011;29041;42.266;23.110;2022-08-02T07:59:31;4.80;;;1.00;;
43449;SDS011;29041;42.266;23.110;2022-08-02T08:02:18;1.90;;;1.45;;
43449;SDS011;29041;42.266;23.110;2022-08-02T08:05:05;1.90;;;1.25;;
43449;SDS011;29041;42.266;23.110;2022-08-02T08:07:53;4.00;;;1.10;;
43449;SDS011;29041;42.266;23.110;2022-08-02T08:10:40;1.23;;;1.02;;
43449;SDS011;29041;42.266;23.110;2022-08-02T08:13:28;1.85;;;1.10;;
43449;SDS011;29041;42.266;23.110;2022-08-02T08:16:17;8.60;;;1.55;;
43449;SDS011;29041;42.266;23.110;2022-08-02T08:19:04;5.50;;;1.65;;
43449;SDS011;29041;42.266;23.110;2022-08-02T08:21:51;6.05;;;1.45;;
43449;SDS011;29041;42.266;23.110;2022-08-02T08:24:38;2.55;;;1.10;;
43449;SDS011;29041;42.266;23.110;2022-08-02T08:27:25;2.42;;;1.35;;
43449;SDS011;29041;42.266;23.110;2022-08-02T08:30:13;3.95;;;1.20;;
43449;SDS011;29041;42.266;23.110;2022-08-02T08:33:06;4.63;;;1.50;;
43449;SDS011;29041;42.266;23.110;2022-08-02T08:35:54;5.93;;;1.30;;
43449;SDS011;29041;42.266;23.110;2022-08-02T08:38:41;2.53;;;1.33;;
43449;SDS011;29041;42.266;23.110;2022-08-02T08:41:29;4.65;;;1.80;;
43449;SDS011;29041;42.266;23.110;2022-08-02T08:44:16;3.33;;;1.25;;
43449;SDS011;29041;42.266;23.110;2022-08-02T08:47:03;1.08;;;0.93;;
43449;SDS011;29041;42.266;23.110;2022-08-02T08:49:52;2.13;;;1.35;;
43449;SDS011;29041;42.266;23.110;2022-08-02T08:52:46;2.25;;;1.30;;
43449;SDS011;29041;42.266;23.110;2022-08-02T08:55:36;2.45;;;1.08;;
43449;SDS011;29041;42.266;23.110;2022-08-02T08:58:23;3.63;;;1.35;;
43449;SDS011;29041;42.266;23.110;2022-08-02T09:01:11;2.72;;;1.45;;
43449;SDS011;29041;42.266;23.110;2022-08-02T09:03:58;5.03;;;1.70;;
43449;SDS011;29041;42.266;23.110;2022-08-02T09:06:47;4.93;;;1.60;;
43449;SDS011;29041;42.266;23.110;2022-08-02T09:09:35;4.25;;;1.67;;
43449;SDS011;29041;42.266;23.110;2022-08-02T09:12:22;2.50;;;1.20;;
43449;SDS011;29041;42.266;23.110;2022-08-02T09:15:09;1.85;;;1.15;;
43449;SDS011;29041;42.266;23.110;2022-08-02T09:17:57;2.03;;;0.88;;
43449;SDS011;29041;42.266;23.110;2022-08-02T09:20:50;2.33;;;1.38;;
43449;SDS011;29041;42.266;23.110;2022-08-02T09:23:41;1.52;;;1.30;;
43449;SDS011;29041;42.266;23.110;2022-08-02T09:26:29;2.08;;;1.20;;
43449;SDS011;29041;42.266;23.110;2022-08-02T09:29:16;3.22;;;1.30;;
43449;SDS011;29041;42.266;23.110;2022-08-02T09:32:05;3.53;;;1.25;;
43449;SDS011;29041;42.266;23.110;2022-08-02T09:34:53;4.85;;;1.38;;
43449;SDS011;29041;42.266;23.110;2022-08-02T09:37:40;1.90;;;1.10;;
43449;SDS011;29041;42.266;23.110;2022-08-02T09:40:34;3.60;;;1.02;;
43449;SDS011;29041;42.266;23.110;2022-08-02T09:43:33;2.72;;;1.30;;
43449;SDS011;29041;42.266;23.110;2022-08-02T09:46:22;1.92;;;1.40;;
43449;SDS011;29041;42.266;23.110;2022-08-02T09:49:11;3.58;;;1.60;;
43449;SDS011;29041;42.266;23.110;2022-08-02T09:52:00;2.65;;;1.10;;
43449;SDS011;29041;42.266;23.110;2022-08-02T09:54:48;2.00;;;1.20;;
43449;SDS011;29041;42.266;23.110;2022-08-02T09:57:36;3.22;;;1.83;;
43449;SDS011;29041;42.266;23.110;2022-08-02T10:00:24;4.15;;;1.52;;
43449;SDS011;29041;42.266;23.110;2022-08-02T10:03:11;2.78;;;1.08;;
43449;SDS011;29041;42.266;23.110;2022-08-02T10:05:58;1.85;;;1.20;;
43449;SDS011;29041;42.266;23.110;2022-08-02T10:08:46;4.35;;;1.35;;
43449;SDS011;29041;42.266;23.110;2022-08-02T10:11:44;2.95;;;1.42;;
43449;SDS011;29041;42.266;23.110;2022-08-02T10:14:33;1.75;;;1.05;;
43449;SDS011;29041;42.266;23.110;2022-08-02T10:17:20;1.58;;;1.02;;
43449;SDS011;29041;42.266;23.110;2022-08-02T10:20:09;2.53;;;1.20;;
43449;SDS011;29041;42.266;23.110;2022-08-02T10:22:57;4.45;;;1.05;;
43449;SDS011;29041;42.266;23.110;2022-08-02T10:25:47;4.35;;;1.10;;
43449;SDS011;29041;42.266;23.110;2022-08-02T10:28:36;1.85;;;0.93;;
43449;SDS011;29041;42.266;23.110;2022-08-02T10:31:26;1.38;;;1.02;;
43449;SDS011;29041;42.266;23.110;2022-08-02T10:34:26;3.85;;;1.23;;
43449;SDS011;29041;42.266;23.110;2022-08-02T10:37:17;4.43;;;1.33;;
43449;SDS011;29041;42.266;23.110;2022-08-02T10:40:07;1.98;;;0.80;;
43449;SDS011;29041;42.266;23.110;2022-08-02T10:43:07;0.82;;;0.70;;
43449;SDS011;29041;42.266;23.110;2022-08-02T10:45:58;2.72;;;0.93;;
43449;SDS011;29041;42.266;23.110;2022-08-02T10:49:11;2.15;;;0.98;;
43449;SDS011;29041;42.266;23.110;2022-08-02T10:52:03;2.55;;;0.80;;
43449;SDS011;29041;42.266;23.110;2022-08-02T10:54:55;0.90;;;0.77;;
43449;SDS011;29041;42.266;23.110;2022-08-02T10:57:43;3.17;;;1.17;;
43449;SDS011;29041;42.266;23.110;2022-08-02T11:00:30;1.92;;;0.93;;
43449;SDS011;29041;42.266;23.110;2022-08-02T11:03:35;2.03;;;0.77;;
43449;SDS011;29041;42.266;23.110;2022-08-02T11:06:27;1.10;;;0.82;;
43449;SDS011;29041;42.266;23.110;2022-08-02T11:09:26;1.58;;;0.98;;
43449;SDS011;29041;42.266;23.110;2022-08-02T11:12:17;3.17;;;0.82;;
43449;SDS011;29041;42.266;23.110;2022-08-02T11:15:05;2.35;;;0.82;;
43449;SDS011;29041;42.266;23.110;2022-08-02T11:17:53;2.60;;;0.95;;
43449;SDS011;29041;42.266;23.110;2022-08-02T11:20:43;1.77;;;0.75;;
43449;SDS011;29041;42.266;23.110;2022-08-02T11:23:35;1.20;;;0.70;;
43449;SDS011;29041;42.266;23.110;2022-08-02T11:26:42;1.95;;;0.57;;
43449;SDS011;29041;42.266;23.110;2022-08-02T11:29:31;1.90;;;0.80;;
43449;SDS011;29041;42.266;23.110;2022-08-02T11:32:20;1.08;;;0.55;;
43449;SDS011;29041;42.266;23.110;2022-08-02T11:35:08;2.20;;;0.65;;
43449;SDS011;29041;42.266;23.110;2022-08-02T11:37:57;3.40;;;0.80;;
43449;SDS011;29041;42.266;23.110;2022-08-02T11:40:59;1.15;;;0.40;;
43449;SDS011;29041;42.266;23.110;2022-08-02T11:43:52;3.60;;;0.75;;
43449;SDS011;29041;42.266;23.110;2022-08-02T11:46:40;2.15;;;0.52;;
43449;SDS011;29041;42.266;23.110;2022-08-02T11:49:27;0.70;;;0.55;;
43449;SDS011;29041;42.266;23.110;2022-08-02T11:52:15;0.73;;;0.60;;
43449;SDS011;29041;42.266;23.110;2022-08-02T11:55:04;0.70;;;0.60;;
43449;SDS011;29041;42.266;23.110;2022-08-02T11:57:56;8.75;;;0.98;;
43449;SDS011;29041;42.266;23.110;2022-08-02T12:00:43;1.52;;;0.50;;
43449;SDS011;29041;42.266;23.110;2022-08-02T12:03:34;1.25;;;0.68;;
43449;SDS011;29041;42.266;23.110;2022-08-02T12:06:23;2.75;;;0.60;;
43449;SDS011;29041;42.266;23.110;2022-08-02T12:09:12;20.52;;;7.57;;
43449;SDS011;29041;42.266;23.110;2022-08-02T12:12:01;2.45;;;0.73;;
43449;SDS011;29041;42.266;23.110;2022-08-02T12:14:49;3.42;;;0.98;;
43449;SDS011;29041;42.266;23.110;2022-08-02T12:17:36;1.95;;;0.52;;
43449;SDS011;29041;42.266;23.110;2022-08-02T12:20:41;2.70;;;0.88;;
43449;SDS011;29041;42.266;23.110;2022-08-02T12:23:28;2.33;;;0.73;;
43449;SDS011;29041;42.266;23.110;2022-08-02T12:26:16;1.40;;;0.57;;
43449;SDS011;29041;42.266;23.110;2022-08-02T12:29:04;0.55;;;0.40;;
43449;SDS011;29041;42.266;23.110;2022-08-02T12:31:51;3.47;;;0.70;;
43449;SDS011;29041;42.266;23.110;2022-08-02T12:34:38;2.42;;;0.63;;
43449;SDS011;29041;42.266;23.110;2022-08-02T12:37:25;0.55;;;0.52;;
43449;SDS011;29041;42.266;23.110;2022-08-02T12:40:16;2.40;;;0.47;;
43449;SDS011;29041;42.266;23.110;2022-08-02T12:43:05;1.05;;;0.40;;
43449;SDS011;29041;42.266;23.110;2022-08-02T12:45:55;2.03;;;0.60;;
43449;SDS011;29041;42.266;23.110;2022-08-02T12:48:43;0.80;;;0.55;;
43449;SDS011;29041;42.266;23.110;2022-08-02T12:51:30;1.52;;;0.50;;
43449;SDS011;29041;42.266;23.110;2022-08-02T12:54:25;0.60;;;0.40;;
43449;SDS011;29041;42.266;23.110;2022-08-02T12:57:13;0.95;;;0.50;;
43449;SDS011;29041;42.266;23.110;2022-08-02T13:00:02;1.15;;;0.50;;
43449;SDS011;29041;42.266;23.110;2022-08-02T13:02:51;2.67;;;0.52;;
43449;SDS011;29041;42.266;23.110;2022-08-02T13:05:38;4.35;;;0.52;;
43449;SDS011;29041;42.266;23.110;2022-08-02T13:08:25;0.82;;;0.70;;
43449;SDS011;29041;42.266;23.110;2022-08-02T13:11:13;3.65;;;0.63;;
43449;SDS011;29041;42.266;23.110;2022-08-02T13:14:00;1.20;;;0.60;;
43449;SDS011;29041;42.266;23.110;2022-08-02T13:16:47;1.08;;;0.60;;
43449;SDS011;29041;42.266;23.110;2022-08-02T13:19:37;1.00;;;0.63;;
43449;SDS011;29041;42.266;23.110;2022-08-02T13:22:25;0.95;;;0.52;;
43449;SDS011;29041;42.266;23.110;2022-08-02T13:25:12;1.42;;;0.50;;
43449;SDS011;29041;42.266;23.110;2022-08-02T13:27:59;0.90;;;0.50;;
43449;SDS011;29041;42.266;23.110;2022-08-02T13:30:46;0.70;;;0.63;;
43449;SDS011;29041;42.266;23.110;2022-08-02T13:33:33;0.85;;;0.50;;
43449;SDS011;29041;42.266;23.110;2022-08-02T13:36:22;1.05;;;0.60;;
43449;SDS011;29041;42.266;23.110;2022-08-02T13:39:09;2.60;;;0.50;;
43449;SDS011;29041;42.266;23.110;2022-08-02T13:41:57;2.30;;;0.60;;
43449;SDS011;29041;42.266;23.110;2022-08-02T13:44:44;2.08;;;0.47;;
43449;SDS011;29041;42.266;23.110;2022-08-02T13:47:31;3.53;;;0.70;;
43449;SDS011;29041;42.266;23.110;2022-08-02T13:50:18;0.80;;;0.40;;
43449;SDS011;29041;42.266;23.110;2022-08-02T13:53:07;1.50;;;0.50;;
43449;SDS011;29041;42.266;23.110;2022-08-02T13:55:54;1.63;;;0.60;;
43449;SDS011;29041;42.266;23.110;2022-08-02T13:58:43;1.05;;;0.57;;
43449;SDS011;29041;42.266;23.110;2022-08-02T14:01:30;0.70;;;0.65;;
43449;SDS011;29041;42.266;23.110;2022-08-02T14:04:18;1.75;;;0.40;;
43449;SDS011;29041;42.266;23.110;2022-08-02T14:07:05;0.85;;;0.40;;
43449;SDS011;29041;42.266;23.110;2022-08-02T14:09:53;4.20;;;1.08;;
43449;SDS011;29041;42.266;23.110;2022-08-02T14:12:41;0.93;;;0.63;;
43449;SDS011;29041;42.266;23.110;2022-08-02T14:15:28;0.70;;;0.60;;
43449;SDS011;29041;42.266;23.110;2022-08-02T14:18:15;1.30;;;1.00;;
43449;SDS011;29041;42.266;23.110;2022-08-02T14:21:02;0.80;;;0.57;;
43449;SDS011;29041;42.266;23.110;2022-08-02T14:23:50;1.83;;;0.75;;
43449;SDS011;29041;42.266;23.110;2022-08-02T14:26:39;0.70;;;0.45;;
43449;SDS011;29041;42.266;23.110;2022-08-02T14:29:26;1.90;;;0.93;;
43449;SDS011;29041;42.266;23.110;2022-08-02T14:32:13;2.55;;;2.08;;
43449;SDS011;29041;42.266;23.110;2022-08-02T14:35:00;1.48;;;0.65;;
43449;SDS011;29041;42.266;23.110;2022-08-02T14:37:47;0.50;;;0.45;;
43449;SDS011;29041;42.266;23.110;2022-08-02T14:40:35;0.95;;;0.65;;
43449;SDS011;29041;42.266;23.110;2022-08-02T14:43:23;1.35;;;0.90;;
43449;SDS011;29041;42.266;23.110;2022-08-02T14:46:28;1.08;;;0.70;;
43449;SDS011;29041;42.266;23.110;2022-08-02T14:49:15;7.93;;;7.00;;
43449;SDS011;29041;42.266;23.110;2022-08-02T14:52:03;4.40;;;1.50;;
43449;SDS011;29041;42.266;23.110;2022-08-02T14:54:50;3.10;;;1.10;;
43449;SDS011;29041;42.266;23.110;2022-08-02T14:57:37;1.75;;;1.13;;
43449;SDS011;29041;42.266;23.110;2022-08-02T15:00:26;0.90;;;0.57;;
43449;SDS011;29041;42.266;23.110;2022-08-02T15:03:13;1.75;;;0.50;;
43449;SDS011;29041;42.266;23.110;2022-08-02T15:06:00;1.73;;;0.93;;
43449;SDS011;29041;42.266;23.110;2022-08-02T15:08:47;2.75;;;0.73;;
43449;SDS011;29041;42.266;23.110;2022-08-02T15:11:35;1.20;;;0.80;;
43449;SDS011;29041;42.266;23.110;2022-08-02T15:14:23;1.67;;;0.70;;
43449;SDS011;29041;42.266;23.110;2022-08-02T15:17:11;0.47;;;0.47;;
43449;SDS011;29041;42.266;23.110;2022-08-02T15:19:58;3.20;;;0.63;;
43449;SDS011;29041;42.266;23.110;2022-08-02T15:22:46;5.32;;;1.55;;
43449;SDS011;29041;42.266;23.110;2022-08-02T15:25:33;0.98;;;0.75;;
43449;SDS011;29041;42.266;23.110;2022-08-02T15:28:21;1.58;;;0.90;;
43449;SDS011;29041;42.266;23.110;2022-08-02T15:31:08;3.60;;;0.98;;
43449;SDS011;29041;42.266;23.110;2022-08-02T15:33:57;9.05;;;7.47;;
43449;SDS011;29041;42.266;23.110;2022-08-02T15:36:44;0.80;;;0.60;;
43449;SDS011;29041;42.266;23.110;2022-08-02T15:39:31;2.13;;;0.60;;
43449;SDS011;29041;42.266;23.110;2022-08-02T15:42:19;1.83;;;0.68;;
43449;SDS011;29041;42.266;23.110;2022-08-02T15:45:06;2.28;;;1.17;;
43449;SDS011;29041;42.266;23.110;2022-08-02T15:47:53;5.20;;;4.03;;
43449;SDS011;29041;42.266;23.110;2022-08-02T15:50:42;8.98;;;7.70;;
43449;SDS011;29041;42.266;23.110;2022-08-02T15:53:30;3.08;;;0.70;;
43449;SDS011;29041;42.266;23.110;2022-08-02T15:56:17;2.58;;;1.70;;
43449;SDS011;29041;42.266;23.110;2022-08-02T15:59:04;2.25;;;1.45;;
43449;SDS011;29041;42.266;23.110;2022-08-02T16:01:56;3.95;;;1.65;;
43449;SDS011;29041;42.266;23.110;2022-08-02T16:04:43;3.33;;;1.25;;
43449;SDS011;29041;42.266;23.110;2022-08-02T16:07:32;3.28;;;1.30;;
43449;SDS011;29041;42.266;23.110;2022-08-02T16:10:19;0.55;;;0.38;;
43449;SDS011;29041;42.266;23.110;2022-08-02T16:13:07;5.28;;;0.60;;
43449;SDS011;29041;42.266;23.110;2022-08-02T16:16:12;1.63;;;1.20;;
43449;SDS011;29041;42.266;23.110;2022-08-02T16:18:59;2.03;;;1.80;;
43449;SDS011;29041;42.266;23.110;2022-08-02T16:21:47;2.60;;;1.48;;
43449;SDS011;29041;42.266;23.110;2022-08-02T16:24:36;1.77;;;0.88;;
43449;SDS011;29041;42.266;23.110;2022-08-02T16:27:23;1.35;;;0.82;;
43449;SDS011;29041;42.266;23.110;2022-08-02T16:30:10;1.83;;;0.35;;
43449;SDS011;29041;42.266;23.110;2022-08-02T16:32:58;2.28;;;0.50;;
43449;SDS011;29041;42.266;23.110;2022-08-02T16:35:45;4.03;;;0.73;;
43449;SDS011;29041;42.266;23.110;2022-08-02T16:38:32;1.05;;;0.60;;
43449;SDS011;29041;42.266;23.110;2022-08-02T16:41:21;0.88;;;0.47;;
43449;SDS011;29041;42.266;23.110;2022-08-02T16:44:08;1.85;;;0.50;;
43449;SDS011;29041;42.266;23.110;2022-08-02T16:46:56;1.35;;;0.65;;
43449;SDS011;29041;42.266;23.110;2022-08-02T16:49:43;1.35;;;0.60;;